sensor_id;sensor_type;location;lat;lon;timestamp;P1;durP1;ratioP1;P2;durP2;ratioP2
40471;SDS011;26174;42.908;23.800;2023-12-20T00:00:56;88.85;;;37.47;;
40471;SDS011;26174;42.908;23.800;2023-12-20T00:03:22;88.18;;;34.47;;
40471;SDS011;26174;42.908;23.800;2023-12-20T00:05:49;73.88;;;32.00;;
40471;SDS011;26174;42.908;23.800;2023-12-20T00:08:15;77.68;;;32.08;;
40471;SDS011;26174;42.908;23.800;2023-12-20T00:10:40;84.50;;;35.47;;
40471;SDS011;26174;42.908;23.800;2023-12-20T00:13:06;66.18;;;29.83;;
40471;SDS011;26174;42.908;23.800;2023-12-20T00:15:33;57.42;;;27.20;;
40471;SDS011;26174;42.908;23.800;2023-12-20T00:17:59;98.00;;;39.38;;
40471;SDS011;26174;42.908;23.800;2023-12-20T00:20:24;73.93;;;34.03;;
40471;SDS011;26174;42.908;23.800;2023-12-20T00:22:50;69.90;;;33.10;;
40471;SDS011;26174;42.908;23.800;2023-12-20T00:25:16;66.50;;;30.70;;
40471;SDS011;26174;42.908;23.800;2023-12-20T00:27:41;72.65;;;28.42;;
40471;SDS011;26174;42.908;23.800;2023-12-20T00:30:07;69.28;;;28.48;;
40471;SDS011;26174;42.908;23.800;2023-12-20T00:32:34;69.28;;;31.20;;
40471;SDS011;26174;42.908;23.800;2023-12-20T00:35:00;74.65;;;31.38;;
40471;SDS011;26174;42.908;23.800;2023-12-20T00:37:26;77.30;;;31.17;;
40471;SDS011;26174;42.908;23.800;2023-12-20T00:39:52;71.40;;;31.02;;
40471;SDS011;26174;42.908;23.800;2023-12-20T00:42:17;66.75;;;31.08;;
40471;SDS011;26174;42.908;23.800;2023-12-20T00:44:43;82.97;;;36.20;;
40471;SDS011;26174;42.908;23.800;2023-12-20T00:47:09;70.57;;;31.98;;
40471;SDS011;26174;42.908;23.800;2023-12-20T00:49:34;60.20;;;28.60;;
40471;SDS011;26174;42.908;23.800;2023-12-20T00:52:00;69.28;;;30.90;;
40471;SDS011;26174;42.908;23.800;2023-12-20T00:54:25;86.45;;;35.67;;
40471;SDS011;26174;42.908;23.800;2023-12-20T00:56:51;72.10;;;31.50;;
40471;SDS011;26174;42.908;23.800;2023-12-20T00:59:16;67.88;;;31.25;;
40471;SDS011;26174;42.908;23.800;2023-12-20T01:01:43;69.82;;;30.23;;
40471;SDS011;26174;42.908;23.800;2023-12-20T01:04:08;74.55;;;33.72;;
40471;SDS011;26174;42.908;23.800;2023-12-20T01:06:34;76.88;;;34.97;;
40471;SDS011;26174;42.908;23.800;2023-12-20T01:09:01;101.38;;;41.28;;
40471;SDS011;26174;42.908;23.800;2023-12-20T01:11:26;81.40;;;35.40;;
40471;SDS011;26174;42.908;23.800;2023-12-20T01:13:52;105.07;;;43.25;;
40471;SDS011;26174;42.908;23.800;2023-12-20T01:16:18;115.93;;;45.83;;
40471;SDS011;26174;42.908;23.800;2023-12-20T01:18:44;126.07;;;46.42;;
40471;SDS011;26174;42.908;23.800;2023-12-20T01:21:09;123.55;;;50.00;;
40471;SDS011;26174;42.908;23.800;2023-12-20T01:23:35;133.32;;;52.60;;
40471;SDS011;26174;42.908;23.800;2023-12-20T01:26:00;111.43;;;45.15;;
40471;SDS011;26174;42.908;23.800;2023-12-20T01:28:27;79.15;;;35.72;;
40471;SDS011;26174;42.908;23.800;2023-12-20T01:30:53;63.13;;;28.15;;
40471;SDS011;26174;42.908;23.800;2023-12-20T01:33:18;68.10;;;28.38;;
40471;SDS011;26174;42.908;23.800;2023-12-20T01:35:44;61.92;;;27.85;;
40471;SDS011;26174;42.908;23.800;2023-12-20T01:38:10;59.30;;;26.08;;
40471;SDS011;26174;42.908;23.800;2023-12-20T01:40:35;55.42;;;24.55;;
40471;SDS011;26174;42.908;23.800;2023-12-20T01:43:01;51.80;;;23.58;;
40471;SDS011;26174;42.908;23.800;2023-12-20T01:45:28;47.22;;;22.70;;
40471;SDS011;26174;42.908;23.800;2023-12-20T01:47:54;45.65;;;22.50;;
40471;SDS011;26174;42.908;23.800;2023-12-20T01:50:20;49.35;;;22.05;;
40471;SDS011;26174;42.908;23.800;2023-12-20T01:52:47;53.45;;;22.92;;
40471;SDS011;26174;42.908;23.800;2023-12-20T01:55:13;59.25;;;25.73;;
40471;SDS011;26174;42.908;23.800;2023-12-20T01:57:43;61.75;;;27.20;;
40471;SDS011;26174;42.908;23.800;2023-12-20T02:00:10;65.47;;;28.90;;
40471;SDS011;26174;42.908;23.800;2023-12-20T02:02:38;57.33;;;24.00;;
40471;SDS011;26174;42.908;23.800;2023-12-20T02:05:05;61.40;;;24.85;;
40471;SDS011;26174;42.908;23.800;2023-12-20T02:07:31;59.80;;;26.77;;
40471;SDS011;26174;42.908;23.800;2023-12-20T02:09:57;50.65;;;24.20;;
40471;SDS011;26174;42.908;23.800;2023-12-20T02:12:22;62.15;;;25.88;;
40471;SDS011;26174;42.908;23.800;2023-12-20T02:14:48;60.33;;;26.08;;
40471;SDS011;26174;42.908;23.800;2023-12-20T02:17:15;67.55;;;26.88;;
40471;SDS011;26174;42.908;23.800;2023-12-20T02:19:41;52.22;;;23.58;;
40471;SDS011;26174;42.908;23.800;2023-12-20T02:22:07;50.65;;;22.42;;
40471;SDS011;26174;42.908;23.800;2023-12-20T02:24:36;55.85;;;24.23;;
40471;SDS011;26174;42.908;23.800;2023-12-20T02:27:02;54.42;;;23.50;;
40471;SDS011;26174;42.908;23.800;2023-12-20T02:29:28;54.72;;;23.25;;
40471;SDS011;26174;42.908;23.800;2023-12-20T02:31:54;57.15;;;23.77;;
40471;SDS011;26174;42.908;23.800;2023-12-20T02:34:19;52.17;;;22.00;;
40471;SDS011;26174;42.908;23.800;2023-12-20T02:36:45;52.75;;;23.00;;
40471;SDS011;26174;42.908;23.800;2023-12-20T02:39:10;54.47;;;23.55;;
40471;SDS011;26174;42.908;23.800;2023-12-20T02:41:36;54.83;;;23.65;;
40471;SDS011;26174;42.908;23.800;2023-12-20T02:44:03;53.05;;;23.20;;
40471;SDS011;26174;42.908;23.800;2023-12-20T02:46:28;63.53;;;25.77;;
40471;SDS011;26174;42.908;23.800;2023-12-20T02:48:54;72.72;;;30.92;;
40471;SDS011;26174;42.908;23.800;2023-12-20T02:51:20;79.90;;;32.45;;
40471;SDS011;26174;42.908;23.800;2023-12-20T02:53:45;68.10;;;29.90;;
40471;SDS011;26174;42.908;23.800;2023-12-20T02:56:11;79.65;;;33.45;;
40471;SDS011;26174;42.908;23.800;2023-12-20T02:58:36;67.78;;;30.80;;
40471;SDS011;26174;42.908;23.800;2023-12-20T03:01:02;80.70;;;34.47;;
40471;SDS011;26174;42.908;23.800;2023-12-20T03:03:38;82.30;;;35.83;;
40471;SDS011;26174;42.908;23.800;2023-12-20T03:06:12;91.10;;;35.90;;
40471;SDS011;26174;42.908;23.800;2023-12-20T03:08:50;84.18;;;33.88;;
40471;SDS011;26174;42.908;23.800;2023-12-20T03:11:16;85.90;;;37.70;;
40471;SDS011;26174;42.908;23.800;2023-12-20T03:13:42;78.32;;;34.47;;
40471;SDS011;26174;42.908;23.800;2023-12-20T03:16:11;79.38;;;34.25;;
40471;SDS011;26174;42.908;23.800;2023-12-20T03:18:45;82.55;;;33.47;;
40471;SDS011;26174;42.908;23.800;2023-12-20T03:21:14;66.45;;;28.60;;
40471;SDS011;26174;42.908;23.800;2023-12-20T03:23:39;79.93;;;32.03;;
40471;SDS011;26174;42.908;23.800;2023-12-20T03:26:08;65.82;;;26.60;;
40471;SDS011;26174;42.908;23.800;2023-12-20T03:28:35;61.88;;;27.65;;
40471;SDS011;26174;42.908;23.800;2023-12-20T03:31:03;60.47;;;26.70;;
40471;SDS011;26174;42.908;23.800;2023-12-20T03:33:30;68.75;;;26.13;;
40471;SDS011;26174;42.908;23.800;2023-12-20T03:36:04;63.40;;;26.40;;
40471;SDS011;26174;42.908;23.800;2023-12-20T03:38:34;74.63;;;29.42;;
40471;SDS011;26174;42.908;23.800;2023-12-20T03:41:04;83.70;;;31.02;;
40471;SDS011;26174;42.908;23.800;2023-12-20T03:43:29;72.70;;;29.92;;
40471;SDS011;26174;42.908;23.800;2023-12-20T03:45:55;70.55;;;31.25;;
40471;SDS011;26174;42.908;23.800;2023-12-20T03:48:21;70.43;;;31.63;;
40471;SDS011;26174;42.908;23.800;2023-12-20T03:50:49;77.72;;;30.70;;
40471;SDS011;26174;42.908;23.800;2023-12-20T03:53:15;88.43;;;32.95;;
40471;SDS011;26174;42.908;23.800;2023-12-20T03:55:43;85.80;;;35.08;;
40471;SDS011;26174;42.908;23.800;2023-12-20T03:58:09;85.32;;;34.83;;
40471;SDS011;26174;42.908;23.800;2023-12-20T04:00:34;93.85;;;37.97;;
40471;SDS011;26174;42.908;23.800;2023-12-20T04:03:00;85.32;;;35.67;;
40471;SDS011;26174;42.908;23.800;2023-12-20T04:05:26;79.10;;;35.00;;
40471;SDS011;26174;42.908;23.800;2023-12-20T04:08:02;73.03;;;32.00;;
40471;SDS011;26174;42.908;23.800;2023-12-20T04:10:29;75.25;;;32.33;;
40471;SDS011;26174;42.908;23.800;2023-12-20T04:12:54;76.72;;;30.85;;
40471;SDS011;26174;42.908;23.800;2023-12-20T04:15:20;73.63;;;30.83;;
40471;SDS011;26174;42.908;23.800;2023-12-20T04:17:46;75.53;;;32.25;;
40471;SDS011;26174;42.908;23.800;2023-12-20T04:20:11;157.50;;;44.58;;
40471;SDS011;26174;42.908;23.800;2023-12-20T04:22:37;104.57;;;35.97;;
40471;SDS011;26174;42.908;23.800;2023-12-20T04:25:02;125.03;;;40.40;;
40471;SDS011;26174;42.908;23.800;2023-12-20T04:27:38;105.18;;;41.85;;
40471;SDS011;26174;42.908;23.800;2023-12-20T04:30:06;114.10;;;44.03;;
40471;SDS011;26174;42.908;23.800;2023-12-20T04:32:32;117.60;;;42.92;;
40471;SDS011;26174;42.908;23.800;2023-12-20T04:35:01;106.95;;;44.92;;
40471;SDS011;26174;42.908;23.800;2023-12-20T04:37:26;95.72;;;41.88;;
40471;SDS011;26174;42.908;23.800;2023-12-20T04:39:52;113.00;;;43.30;;
40471;SDS011;26174;42.908;23.800;2023-12-20T04:42:20;114.15;;;48.78;;
40471;SDS011;26174;42.908;23.800;2023-12-20T04:44:45;115.63;;;49.17;;
40471;SDS011;26174;42.908;23.800;2023-12-20T04:47:33;121.78;;;47.28;;
40471;SDS011;26174;42.908;23.800;2023-12-20T04:49:58;106.32;;;44.92;;
40471;SDS011;26174;42.908;23.800;2023-12-20T04:52:24;107.10;;;42.05;;
40471;SDS011;26174;42.908;23.800;2023-12-20T04:54:50;107.18;;;43.50;;
40471;SDS011;26174;42.908;23.800;2023-12-20T04:57:24;95.45;;;37.78;;
40471;SDS011;26174;42.908;23.800;2023-12-20T05:00:38;93.47;;;37.45;;
40471;SDS011;26174;42.908;23.800;2023-12-20T05:03:04;84.70;;;35.33;;
40471;SDS011;26174;42.908;23.800;2023-12-20T05:05:38;78.40;;;33.33;;
40471;SDS011;26174;42.908;23.800;2023-12-20T05:08:07;74.18;;;31.38;;
40471;SDS011;26174;42.908;23.800;2023-12-20T05:10:35;68.57;;;28.88;;
40471;SDS011;26174;42.908;23.800;2023-12-20T05:13:04;81.07;;;30.27;;
40471;SDS011;26174;42.908;23.800;2023-12-20T05:15:48;65.93;;;26.83;;
40471;SDS011;26174;42.908;23.800;2023-12-20T05:18:27;61.47;;;25.13;;
40471;SDS011;26174;42.908;23.800;2023-12-20T05:20:53;55.35;;;24.15;;
40471;SDS011;26174;42.908;23.800;2023-12-20T05:23:19;62.83;;;24.23;;
40471;SDS011;26174;42.908;23.800;2023-12-20T05:25:49;63.15;;;26.50;;
40471;SDS011;26174;42.908;23.800;2023-12-20T05:28:17;64.28;;;27.60;;
40471;SDS011;26174;42.908;23.800;2023-12-20T05:30:51;88.72;;;34.20;;
40471;SDS011;26174;42.908;23.800;2023-12-20T05:33:19;93.82;;;39.13;;
40471;SDS011;26174;42.908;23.800;2023-12-20T05:35:48;73.72;;;29.17;;
40471;SDS011;26174;42.908;23.800;2023-12-20T05:38:23;77.30;;;29.02;;
40471;SDS011;26174;42.908;23.800;2023-12-20T05:40:48;75.15;;;30.02;;
40471;SDS011;26174;42.908;23.800;2023-12-20T05:43:16;80.00;;;31.38;;
40471;SDS011;26174;42.908;23.800;2023-12-20T05:45:54;88.22;;;33.42;;
40471;SDS011;26174;42.908;23.800;2023-12-20T05:48:23;108.07;;;40.75;;
40471;SDS011;26174;42.908;23.800;2023-12-20T05:50:48;108.38;;;44.55;;
40471;SDS011;26174;42.908;23.800;2023-12-20T05:53:20;99.10;;;40.67;;
40471;SDS011;26174;42.908;23.800;2023-12-20T05:55:54;104.85;;;42.47;;
40471;SDS011;26174;42.908;23.800;2023-12-20T05:58:20;131.82;;;48.80;;
40471;SDS011;26174;42.908;23.800;2023-12-20T06:00:46;107.07;;;40.90;;
40471;SDS011;26174;42.908;23.800;2023-12-20T06:03:11;112.63;;;43.97;;
40471;SDS011;26174;42.908;23.800;2023-12-20T06:05:37;114.82;;;43.80;;
40471;SDS011;26174;42.908;23.800;2023-12-20T06:08:05;148.50;;;54.90;;
40471;SDS011;26174;42.908;23.800;2023-12-20T06:10:31;157.10;;;61.15;;
40471;SDS011;26174;42.908;23.800;2023-12-20T06:12:57;201.32;;;76.22;;
40471;SDS011;26174;42.908;23.800;2023-12-20T06:15:24;185.85;;;63.95;;
40471;SDS011;26174;42.908;23.800;2023-12-20T06:17:49;115.70;;;46.30;;
40471;SDS011;26174;42.908;23.800;2023-12-20T06:20:15;112.43;;;42.30;;
40471;SDS011;26174;42.908;23.800;2023-12-20T06:22:41;113.93;;;45.63;;
40471;SDS011;26174;42.908;23.800;2023-12-20T06:25:06;114.25;;;45.33;;
40471;SDS011;26174;42.908;23.800;2023-12-20T06:27:35;117.15;;;46.25;;
40471;SDS011;26174;42.908;23.800;2023-12-20T06:30:00;158.65;;;60.15;;
40471;SDS011;26174;42.908;23.800;2023-12-20T06:32:26;133.63;;;56.25;;
40471;SDS011;26174;42.908;23.800;2023-12-20T06:34:55;168.05;;;61.75;;
40471;SDS011;26174;42.908;23.800;2023-12-20T06:37:21;128.00;;;49.20;;
40471;SDS011;26174;42.908;23.800;2023-12-20T06:39:46;136.30;;;53.75;;
40471;SDS011;26174;42.908;23.800;2023-12-20T06:42:12;134.93;;;56.28;;
40471;SDS011;26174;42.908;23.800;2023-12-20T06:44:41;156.75;;;67.30;;
40471;SDS011;26174;42.908;23.800;2023-12-20T06:47:07;134.27;;;58.67;;
40471;SDS011;26174;42.908;23.800;2023-12-20T06:49:33;108.78;;;49.10;;
40471;SDS011;26174;42.908;23.800;2023-12-20T06:51:59;99.30;;;43.97;;
40471;SDS011;26174;42.908;23.800;2023-12-20T06:54:24;120.25;;;52.80;;
40471;SDS011;26174;42.908;23.800;2023-12-20T06:56:50;95.68;;;42.40;;
40471;SDS011;26174;42.908;23.800;2023-12-20T06:59:15;96.45;;;41.10;;
40471;SDS011;26174;42.908;23.800;2023-12-20T07:01:41;76.75;;;35.05;;
40471;SDS011;26174;42.908;23.800;2023-12-20T07:04:07;71.22;;;35.20;;
40471;SDS011;26174;42.908;23.800;2023-12-20T07:06:33;84.72;;;40.10;;
40471;SDS011;26174;42.908;23.800;2023-12-20T07:08:58;94.63;;;40.55;;
40471;SDS011;26174;42.908;23.800;2023-12-20T07:11:24;87.35;;;39.47;;
40471;SDS011;26174;42.908;23.800;2023-12-20T07:13:49;96.65;;;45.67;;
40471;SDS011;26174;42.908;23.800;2023-12-20T07:16:15;94.28;;;43.80;;
40471;SDS011;26174;42.908;23.800;2023-12-20T07:18:41;124.03;;;56.95;;
40471;SDS011;26174;42.908;23.800;2023-12-20T07:21:06;113.20;;;53.35;;
40471;SDS011;26174;42.908;23.800;2023-12-20T07:23:33;144.20;;;63.30;;
40471;SDS011;26174;42.908;23.800;2023-12-20T07:25:58;137.50;;;63.72;;
40471;SDS011;26174;42.908;23.800;2023-12-20T07:28:24;136.32;;;68.25;;
40471;SDS011;26174;42.908;23.800;2023-12-20T07:30:50;137.98;;;65.30;;
40471;SDS011;26174;42.908;23.800;2023-12-20T07:33:15;152.38;;;72.05;;
40471;SDS011;26174;42.908;23.800;2023-12-20T07:35:41;161.43;;;73.15;;
40471;SDS011;26174;42.908;23.800;2023-12-20T07:38:07;170.07;;;79.07;;
40471;SDS011;26174;42.908;23.800;2023-12-20T07:40:32;164.23;;;75.50;;
40471;SDS011;26174;42.908;23.800;2023-12-20T07:42:58;195.57;;;78.53;;
40471;SDS011;26174;42.908;23.800;2023-12-20T07:45:24;142.05;;;66.63;;
40471;SDS011;26174;42.908;23.800;2023-12-20T07:47:49;150.18;;;68.68;;
40471;SDS011;26174;42.908;23.800;2023-12-20T07:50:15;119.40;;;55.05;;
40471;SDS011;26174;42.908;23.800;2023-12-20T07:52:41;127.72;;;61.17;;
40471;SDS011;26174;42.908;23.800;2023-12-20T07:55:06;114.40;;;56.70;;
40471;SDS011;26174;42.908;23.800;2023-12-20T07:57:32;104.10;;;53.38;;
40471;SDS011;26174;42.908;23.800;2023-12-20T07:59:59;112.35;;;54.15;;
40471;SDS011;26174;42.908;23.800;2023-12-20T08:02:24;108.18;;;52.95;;
40471;SDS011;26174;42.908;23.800;2023-12-20T08:04:50;93.00;;;46.95;;
40471;SDS011;26174;42.908;23.800;2023-12-20T08:07:15;93.65;;;47.80;;
40471;SDS011;26174;42.908;23.800;2023-12-20T08:09:41;93.57;;;48.50;;
40471;SDS011;26174;42.908;23.800;2023-12-20T08:12:08;93.07;;;48.60;;
40471;SDS011;26174;42.908;23.800;2023-12-20T08:14:34;107.40;;;52.10;;
40471;SDS011;26174;42.908;23.800;2023-12-20T08:17:00;105.00;;;54.15;;
40471;SDS011;26174;42.908;23.800;2023-12-20T08:19:25;108.90;;;55.50;;
40471;SDS011;26174;42.908;23.800;2023-12-20T08:21:51;111.40;;;57.53;;
40471;SDS011;26174;42.908;23.800;2023-12-20T08:24:17;119.88;;;56.42;;
40471;SDS011;26174;42.908;23.800;2023-12-20T08:26:42;150.18;;;64.30;;
40471;SDS011;26174;42.908;23.800;2023-12-20T08:29:08;124.30;;;59.28;;
40471;SDS011;26174;42.908;23.800;2023-12-20T08:31:33;143.27;;;65.90;;
40471;SDS011;26174;42.908;23.800;2023-12-20T08:33:59;131.02;;;66.93;;
40471;SDS011;26174;42.908;23.800;2023-12-20T08:36:25;144.75;;;71.65;;
40471;SDS011;26174;42.908;23.800;2023-12-20T08:38:50;142.52;;;71.20;;
40471;SDS011;26174;42.908;23.800;2023-12-20T08:41:16;149.07;;;77.10;;
40471;SDS011;26174;42.908;23.800;2023-12-20T08:43:42;167.60;;;87.03;;
40471;SDS011;26174;42.908;23.800;2023-12-20T08:46:08;147.23;;;71.57;;
40471;SDS011;26174;42.908;23.800;2023-12-20T08:48:37;127.22;;;63.10;;
40471;SDS011;26174;42.908;23.800;2023-12-20T08:51:03;166.00;;;77.93;;
40471;SDS011;26174;42.908;23.800;2023-12-20T08:53:29;139.15;;;64.43;;
40471;SDS011;26174;42.908;23.800;2023-12-20T08:55:55;127.65;;;62.63;;
40471;SDS011;26174;42.908;23.800;2023-12-20T08:58:20;135.93;;;66.28;;
40471;SDS011;26174;42.908;23.800;2023-12-20T09:00:46;119.70;;;62.47;;
40471;SDS011;26174;42.908;23.800;2023-12-20T09:03:11;132.73;;;70.97;;
40471;SDS011;26174;42.908;23.800;2023-12-20T09:05:37;130.00;;;69.97;;
40471;SDS011;26174;42.908;23.800;2023-12-20T09:08:02;137.93;;;80.05;;
40471;SDS011;26174;42.908;23.800;2023-12-20T09:10:28;129.40;;;75.30;;
40471;SDS011;26174;42.908;23.800;2023-12-20T09:12:54;127.03;;;70.97;;
40471;SDS011;26174;42.908;23.800;2023-12-20T09:15:26;117.22;;;67.97;;
40471;SDS011;26174;42.908;23.800;2023-12-20T09:17:52;118.20;;;62.65;;
40471;SDS011;26174;42.908;23.800;2023-12-20T09:20:18;93.03;;;55.30;;
40471;SDS011;26174;42.908;23.800;2023-12-20T09:22:44;98.90;;;56.58;;
40471;SDS011;26174;42.908;23.800;2023-12-20T09:25:10;108.97;;;58.97;;
40471;SDS011;26174;42.908;23.800;2023-12-20T09:27:38;96.55;;;54.67;;
40471;SDS011;26174;42.908;23.800;2023-12-20T09:30:04;168.48;;;100.47;;
40471;SDS011;26174;42.908;23.800;2023-12-20T09:32:30;83.72;;;54.28;;
40471;SDS011;26174;42.908;23.800;2023-12-20T09:34:56;76.45;;;47.50;;
40471;SDS011;26174;42.908;23.800;2023-12-20T09:37:24;108.53;;;64.68;;
40471;SDS011;26174;42.908;23.800;2023-12-20T09:39:53;154.82;;;92.30;;
40471;SDS011;26174;42.908;23.800;2023-12-20T09:42:21;124.65;;;73.13;;
40471;SDS011;26174;42.908;23.800;2023-12-20T09:45:21;112.88;;;68.28;;
40471;SDS011;26174;42.908;23.800;2023-12-20T09:47:48;128.30;;;72.22;;
40471;SDS011;26174;42.908;23.800;2023-12-20T09:50:15;119.63;;;69.55;;
40471;SDS011;26174;42.908;23.800;2023-12-20T09:52:43;134.60;;;79.53;;
40471;SDS011;26174;42.908;23.800;2023-12-20T09:55:09;147.40;;;90.55;;
40471;SDS011;26174;42.908;23.800;2023-12-20T09:57:35;142.30;;;81.43;;
40471;SDS011;26174;42.908;23.800;2023-12-20T10:00:01;136.60;;;81.78;;
40471;SDS011;26174;42.908;23.800;2023-12-20T10:02:26;153.70;;;89.97;;
40471;SDS011;26174;42.908;23.800;2023-12-20T10:04:52;160.52;;;95.55;;
40471;SDS011;26174;42.908;23.800;2023-12-20T10:07:19;183.20;;;104.57;;
40471;SDS011;26174;42.908;23.800;2023-12-20T10:09:45;176.15;;;105.03;;
40471;SDS011;26174;42.908;23.800;2023-12-20T10:12:12;185.40;;;104.13;;
40471;SDS011;26174;42.908;23.800;2023-12-20T10:14:38;203.45;;;113.40;;
40471;SDS011;26174;42.908;23.800;2023-12-20T10:17:05;194.20;;;106.90;;
40471;SDS011;26174;42.908;23.800;2023-12-20T10:19:31;200.57;;;102.85;;
40471;SDS011;26174;42.908;23.800;2023-12-20T10:22:00;186.85;;;103.13;;
40471;SDS011;26174;42.908;23.800;2023-12-20T10:24:29;176.40;;;98.17;;
40471;SDS011;26174;42.908;23.800;2023-12-20T10:27:01;178.48;;;101.15;;
40471;SDS011;26174;42.908;23.800;2023-12-20T10:29:32;155.27;;;85.68;;
40471;SDS011;26174;42.908;23.800;2023-12-20T10:31:58;158.57;;;87.45;;
40471;SDS011;26174;42.908;23.800;2023-12-20T10:34:24;154.20;;;86.07;;
40471;SDS011;26174;42.908;23.800;2023-12-20T10:36:49;155.68;;;87.72;;
40471;SDS011;26174;42.908;23.800;2023-12-20T10:39:16;145.82;;;78.20;;
40471;SDS011;26174;42.908;23.800;2023-12-20T10:41:45;118.55;;;64.07;;
40471;SDS011;26174;42.908;23.800;2023-12-20T10:44:11;117.40;;;61.42;;
40471;SDS011;26174;42.908;23.800;2023-12-20T10:46:37;89.82;;;52.00;;
40471;SDS011;26174;42.908;23.800;2023-12-20T10:49:06;95.25;;;50.47;;
40471;SDS011;26174;42.908;23.800;2023-12-20T10:51:32;78.18;;;43.30;;
40471;SDS011;26174;42.908;23.800;2023-12-20T10:54:05;82.70;;;44.75;;
40471;SDS011;26174;42.908;23.800;2023-12-20T10:56:32;82.35;;;42.80;;
40471;SDS011;26174;42.908;23.800;2023-12-20T10:58:58;71.03;;;37.17;;
40471;SDS011;26174;42.908;23.800;2023-12-20T11:01:28;70.57;;;37.58;;
40471;SDS011;26174;42.908;23.800;2023-12-20T11:03:54;98.13;;;50.08;;
40471;SDS011;26174;42.908;23.800;2023-12-20T11:06:27;44.92;;;26.08;;
40471;SDS011;26174;42.908;23.800;2023-12-20T11:09:10;57.83;;;34.15;;
40471;SDS011;26174;42.908;23.800;2023-12-20T11:17:11;80.82;;;36.45;;
40471;SDS011;26174;42.908;23.800;2023-12-20T11:22:27;55.75;;;32.78;;
40471;SDS011;26174;42.908;23.800;2023-12-20T11:24:57;53.20;;;31.05;;
40471;SDS011;26174;42.908;23.800;2023-12-20T11:27:25;56.42;;;32.22;;
40471;SDS011;26174;42.908;23.800;2023-12-20T11:29:51;49.85;;;29.65;;
40471;SDS011;26174;42.908;23.800;2023-12-20T11:34:53;26.92;;;19.42;;
40471;SDS011;26174;42.908;23.800;2023-12-20T11:37:40;49.20;;;29.52;;
40471;SDS011;26174;42.908;23.800;2023-12-20T11:40:08;43.40;;;28.02;;
40471;SDS011;26174;42.908;23.800;2023-12-20T11:42:40;59.92;;;40.13;;
40471;SDS011;26174;42.908;23.800;2023-12-20T11:45:09;40.60;;;25.52;;
40471;SDS011;26174;42.908;23.800;2023-12-20T11:47:35;37.17;;;21.40;;
40471;SDS011;26174;42.908;23.800;2023-12-20T11:50:01;57.03;;;34.22;;
40471;SDS011;26174;42.908;23.800;2023-12-20T11:52:29;40.90;;;18.20;;
40471;SDS011;26174;42.908;23.800;2023-12-20T11:55:00;30.30;;;20.38;;
40471;SDS011;26174;42.908;23.800;2023-12-20T11:57:26;30.42;;;18.23;;
40471;SDS011;26174;42.908;23.800;2023-12-20T11:59:52;34.47;;;19.70;;
40471;SDS011;26174;42.908;23.800;2023-12-20T12:02:17;32.80;;;20.20;;
40471;SDS011;26174;42.908;23.800;2023-12-20T12:04:43;30.05;;;17.35;;
40471;SDS011;26174;42.908;23.800;2023-12-20T12:07:09;33.28;;;17.25;;
40471;SDS011;26174;42.908;23.800;2023-12-20T12:09:34;23.10;;;15.32;;
40471;SDS011;26174;42.908;23.800;2023-12-20T12:12:00;18.45;;;12.88;;
40471;SDS011;26174;42.908;23.800;2023-12-20T12:14:26;21.23;;;11.32;;
40471;SDS011;26174;42.908;23.800;2023-12-20T12:16:52;8.95;;;5.28;;
40471;SDS011;26174;42.908;23.800;2023-12-20T12:19:25;7.60;;;5.30;;
40471;SDS011;26174;42.908;23.800;2023-12-20T12:21:52;9.75;;;4.80;;
40471;SDS011;26174;42.908;23.800;2023-12-20T12:24:45;13.70;;;4.55;;
40471;SDS011;26174;42.908;23.800;2023-12-20T12:27:12;7.40;;;4.28;;
40471;SDS011;26174;42.908;23.800;2023-12-20T12:29:38;5.75;;;3.55;;
40471;SDS011;26174;42.908;23.800;2023-12-20T12:32:04;10.55;;;5.05;;
40471;SDS011;26174;42.908;23.800;2023-12-20T12:34:32;6.05;;;3.65;;
40471;SDS011;26174;42.908;23.800;2023-12-20T12:36:59;6.80;;;4.00;;
40471;SDS011;26174;42.908;23.800;2023-12-20T12:39:25;4.22;;;2.78;;
40471;SDS011;26174;42.908;23.800;2023-12-20T12:41:51;8.45;;;5.03;;
40471;SDS011;26174;42.908;23.800;2023-12-20T12:44:17;7.43;;;4.78;;
40471;SDS011;26174;42.908;23.800;2023-12-20T12:46:43;6.15;;;3.92;;
40471;SDS011;26174;42.908;23.800;2023-12-20T12:49:12;10.43;;;4.75;;
40471;SDS011;26174;42.908;23.800;2023-12-20T12:51:38;5.00;;;2.97;;
40471;SDS011;26174;42.908;23.800;2023-12-20T12:54:04;5.78;;;3.72;;
40471;SDS011;26174;42.908;23.800;2023-12-20T12:56:30;5.20;;;3.38;;
40471;SDS011;26174;42.908;23.800;2023-12-20T12:58:55;8.20;;;4.55;;
40471;SDS011;26174;42.908;23.800;2023-12-20T13:01:21;7.10;;;3.67;;
40471;SDS011;26174;42.908;23.800;2023-12-20T13:03:47;4.82;;;3.35;;
40471;SDS011;26174;42.908;23.800;2023-12-20T13:06:12;6.78;;;3.25;;
40471;SDS011;26174;42.908;23.800;2023-12-20T13:08:38;8.32;;;4.20;;
40471;SDS011;26174;42.908;23.800;2023-12-20T13:11:03;9.35;;;5.50;;
40471;SDS011;26174;42.908;23.800;2023-12-20T13:13:30;7.22;;;3.65;;
40471;SDS011;26174;42.908;23.800;2023-12-20T13:15:56;7.50;;;3.95;;
40471;SDS011;26174;42.908;23.800;2023-12-20T13:18:22;5.75;;;3.08;;
40471;SDS011;26174;42.908;23.800;2023-12-20T13:20:48;6.78;;;3.70;;
40471;SDS011;26174;42.908;23.800;2023-12-20T13:23:14;6.60;;;3.28;;
40471;SDS011;26174;42.908;23.800;2023-12-20T13:25:40;9.27;;;4.15;;
40471;SDS011;26174;42.908;23.800;2023-12-20T13:28:06;6.60;;;3.85;;
40471;SDS011;26174;42.908;23.800;2023-12-20T13:30:33;4.78;;;3.25;;
40471;SDS011;26174;42.908;23.800;2023-12-20T13:32:59;5.97;;;3.38;;
40471;SDS011;26174;42.908;23.800;2023-12-20T13:35:24;6.57;;;3.47;;
40471;SDS011;26174;42.908;23.800;2023-12-20T13:37:50;10.82;;;4.85;;
40471;SDS011;26174;42.908;23.800;2023-12-20T13:40:16;7.80;;;4.38;;
40471;SDS011;26174;42.908;23.800;2023-12-20T13:42:41;7.72;;;3.80;;
40471;SDS011;26174;42.908;23.800;2023-12-20T13:45:07;9.13;;;5.75;;
40471;SDS011;26174;42.908;23.800;2023-12-20T13:47:33;8.93;;;5.00;;
40471;SDS011;26174;42.908;23.800;2023-12-20T13:49:59;10.45;;;4.53;;
40471;SDS011;26174;42.908;23.800;2023-12-20T13:52:24;13.05;;;7.15;;
40471;SDS011;26174;42.908;23.800;2023-12-20T13:54:50;15.75;;;5.00;;
40471;SDS011;26174;42.908;23.800;2023-12-20T13:57:15;12.73;;;5.03;;
40471;SDS011;26174;42.908;23.800;2023-12-20T13:59:41;78.75;;;27.30;;
40471;SDS011;26174;42.908;23.800;2023-12-20T14:02:07;11.73;;;4.82;;
40471;SDS011;26174;42.908;23.800;2023-12-20T14:04:32;8.10;;;4.10;;
40471;SDS011;26174;42.908;23.800;2023-12-20T14:06:58;8.10;;;4.47;;
40471;SDS011;26174;42.908;23.800;2023-12-20T14:09:23;7.28;;;4.20;;
40471;SDS011;26174;42.908;23.800;2023-12-20T14:11:49;7.90;;;4.57;;
40471;SDS011;26174;42.908;23.800;2023-12-20T14:14:15;6.70;;;3.92;;
40471;SDS011;26174;42.908;23.800;2023-12-20T14:16:41;7.85;;;4.53;;
40471;SDS011;26174;42.908;23.800;2023-12-20T14:19:10;7.05;;;4.07;;